createdAt,value
2018-12-09T00:00:25.268Z,13.30
2018-12-09T00:01:25.306Z,9.20
2018-12-09T00:02:25.254Z,3.90
2018-12-09T00:03:25.260Z,7.30
2018-12-09T00:04:25.282Z,7.60
2018-12-09T00:05:25.223Z,7.20
2018-12-09T00:06:25.205Z,8.40
2018-12-09T00:07:25.183Z,6.20
2018-12-09T00:08:25.206Z,5.70
2018-12-09T00:09:25.176Z,8.10
2018-12-09T00:10:25.154Z,4.80
2018-12-09T00:11:25.153Z,6.10
2018-12-09T00:12:25.145Z,7.90
2018-12-09T00:13:25.132Z,6.40
2018-12-09T00:14:25.159Z,8.70
2018-12-09T00:15:25.095Z,7.10
2018-12-09T00:16:25.104Z,6.40
2018-12-09T00:17:25.088Z,9.00
2018-12-09T00:18:25.068Z,6.30
2018-12-09T00:19:25.087Z,7.50
2018-12-09T00:20:25.060Z,4.70
2018-12-09T00:21:25.044Z,7.30
2018-12-09T00:22:25.042Z,5.50
2018-12-09T00:23:25.024Z,4.70
2018-12-09T00:24:25.010Z,6.50
2018-12-09T00:25:25.004Z,5.20
2018-12-09T00:26:25.107Z,4.50
2018-12-09T00:27:24.978Z,8.10
2018-12-09T00:28:25.956Z,4.50
2018-12-09T00:29:24.974Z,5.10
2018-12-09T00:30:24.966Z,6.30
2018-12-09T00:31:24.963Z,5.10
2018-12-09T00:32:24.959Z,3.10
2018-12-09T00:33:24.979Z,5.40
2018-12-09T00:34:25.442Z,4.20
2018-12-09T00:35:25.083Z,3.70
2018-12-09T00:36:24.972Z,2.50
2018-12-09T00:37:24.916Z,4.80
2018-12-09T00:38:24.851Z,4.50
2018-12-09T00:39:24.842Z,3.90
2018-12-09T00:40:24.838Z,3.90
2018-12-09T00:41:24.855Z,3.90
2018-12-09T00:42:24.818Z,2.90
2018-12-09T00:43:24.805Z,3.00
2018-12-09T00:44:24.791Z,2.40
2018-12-09T00:45:24.778Z,3.40
2018-12-09T00:46:24.790Z,2.50
2018-12-09T00:47:24.767Z,3.90
2018-12-09T00:48:24.740Z,3.60
2018-12-09T00:49:24.740Z,5.80
2018-12-09T00:50:24.737Z,6.60
2018-12-09T00:51:24.731Z,4.80
2018-12-09T00:52:24.701Z,4.60
2018-12-09T00:53:24.684Z,3.00
2018-12-09T00:54:24.686Z,4.70
2018-12-09T00:55:24.683Z,5.30
2018-12-09T00:56:24.709Z,4.30
2018-12-09T00:57:24.669Z,4.00
2018-12-09T00:58:24.644Z,5.00
2018-12-09T00:59:24.646Z,5.30
2018-12-09T01:00:24.618Z,4.90
2018-12-09T01:01:24.619Z,5.50
2018-12-09T01:02:24.593Z,6.80
2018-12-09T01:03:24.594Z,5.60
2018-12-09T01:04:24.573Z,8.00
2018-12-09T01:05:24.582Z,3.60
2018-12-09T01:06:24.581Z,10.10
2018-12-09T01:07:24.960Z,6.40
2018-12-09T01:08:24.535Z,6.30
2018-12-09T01:09:24.525Z,7.70
2018-12-09T01:10:24.515Z,10.80
2018-12-09T01:11:24.511Z,6.80
2018-12-09T01:12:24.497Z,7.20
2018-12-09T01:13:24.473Z,5.50
2018-12-09T01:14:24.470Z,8.70
2018-12-09T01:15:24.456Z,9.00
2018-12-09T01:16:24.464Z,7.40
2018-12-09T01:17:24.430Z,8.00
2018-12-09T01:18:24.420Z,8.30
2018-12-09T01:19:24.416Z,7.20
2018-12-09T01:20:24.402Z,7.90
2018-12-09T01:22:33.604Z,8.10
2018-12-09T01:23:34.560Z,7.70
2018-12-09T01:24:34.558Z,9.70
2018-12-09T01:25:34.552Z,10.40
2018-12-09T01:26:34.538Z,9.00
2018-12-09T01:27:34.834Z,10.60
2018-12-09T01:28:34.527Z,7.30
2018-12-09T01:29:34.512Z,7.00
2018-12-09T01:30:34.491Z,7.30
2018-12-09T01:31:34.523Z,8.80
2018-12-09T01:32:34.490Z,5.10
2018-12-09T01:33:34.466Z,7.00
2018-12-09T01:34:34.463Z,8.10
2018-12-09T01:35:34.439Z,8.10
2018-12-09T01:36:34.430Z,9.20
2018-12-09T01:37:34.440Z,6.80
2018-12-09T01:38:34.424Z,6.60
2018-12-09T01:39:34.400Z,8.60
2018-12-09T01:40:34.385Z,6.90
2018-12-09T01:41:34.372Z,8.60
2018-12-09T01:42:34.386Z,8.30
2018-12-09T01:43:34.352Z,5.90
2018-12-09T01:44:34.358Z,8.30
2018-12-09T01:45:34.330Z,4.90
2018-12-09T01:46:34.320Z,4.80
2018-12-09T01:47:34.325Z,5.80
2018-12-09T01:48:34.300Z,7.10
2018-12-09T01:49:34.287Z,7.20
2018-12-09T01:50:34.272Z,6.10
2018-12-09T01:51:34.262Z,8.80
2018-12-09T01:52:34.271Z,6.00
2018-12-09T01:53:34.241Z,6.90
2018-12-09T01:54:34.232Z,5.50
2018-12-09T01:55:34.238Z,6.30
2018-12-09T01:56:34.215Z,7.30
2018-12-09T01:57:34.223Z,7.30
2018-12-09T01:58:34.187Z,6.70
2018-12-09T01:59:34.180Z,9.30
2018-12-09T02:00:34.175Z,10.10
2018-12-09T02:01:34.214Z,5.60
2018-12-09T02:02:34.165Z,7.80
2018-12-09T02:03:34.166Z,10.00
2018-12-09T02:04:34.124Z,7.90
2018-12-09T02:05:34.112Z,7.90
2018-12-09T02:06:34.093Z,5.40
2018-12-09T02:07:34.118Z,6.70
2018-12-09T02:08:34.087Z,11.20
2018-12-09T02:09:34.065Z,8.60
2018-12-09T02:10:34.044Z,7.60
2018-12-09T02:11:34.063Z,8.60
2018-12-09T02:12:34.027Z,11.50
2018-12-09T02:13:34.023Z,6.20
2018-12-09T02:14:34.014Z,8.90
2018-12-09T02:15:33.989Z,8.70
2018-12-09T02:16:33.976Z,9.80
2018-12-09T02:17:33.968Z,8.30
2018-12-09T02:18:33.987Z,6.90
2018-12-09T02:19:33.959Z,11.80
2018-12-09T02:20:33.935Z,9.60
2018-12-09T02:21:33.926Z,11.10
2018-12-09T02:22:33.925Z,7.80
2018-12-09T02:23:33.927Z,8.70
2018-12-09T02:24:33.905Z,11.20
2018-12-09T02:25:33.892Z,10.50
2018-12-09T02:26:33.882Z,9.20
2018-12-09T02:27:33.861Z,9.80
2018-12-09T02:28:33.870Z,6.30
2018-12-09T02:29:33.888Z,9.50
2018-12-09T02:30:33.829Z,10.40
2018-12-09T02:31:33.831Z,11.70
2018-12-09T02:32:33.817Z,13.30
2018-12-09T02:33:33.822Z,8.50
2018-12-09T02:34:33.792Z,11.40
2018-12-09T02:35:33.789Z,11.90
2018-12-09T02:36:33.758Z,13.30
2018-12-09T02:37:33.747Z,12.10
2018-12-09T02:38:33.770Z,9.50
2018-12-09T02:39:33.729Z,12.70
2018-12-09T02:40:33.722Z,12.50
2018-12-09T02:41:33.707Z,10.60
2018-12-09T02:42:33.705Z,13.00
2018-12-09T02:43:33.716Z,15.70
2018-12-09T02:44:33.679Z,10.00
2018-12-09T02:45:33.663Z,13.90
2018-12-09T02:46:33.675Z,19.30
2018-12-09T02:47:33.662Z,17.60
2018-12-09T02:48:33.667Z,12.90
2018-12-09T02:49:33.632Z,12.80
2018-12-09T02:50:33.611Z,17.40
2018-12-09T02:51:33.619Z,14.30
2018-12-09T02:52:33.593Z,14.90
2018-12-09T02:53:33.597Z,14.00
2018-12-09T02:54:34.342Z,16.20
2018-12-09T02:55:33.557Z,15.30
2018-12-09T02:56:33.550Z,14.80
2018-12-09T02:57:33.539Z,15.90
2018-12-09T02:58:33.548Z,16.80
2018-12-09T02:59:33.526Z,15.40
2018-12-09T03:00:33.520Z,18.40
2018-12-09T03:01:33.488Z,18.30
2018-12-09T03:02:33.492Z,13.60
2018-12-09T03:03:33.493Z,13.20
2018-12-09T03:04:33.464Z,15.50
2018-12-09T03:05:33.461Z,13.40
2018-12-09T03:06:33.437Z,15.60
2018-12-09T03:07:33.422Z,15.90
2018-12-09T03:08:33.446Z,16.90
2018-12-09T03:09:33.406Z,15.90
2018-12-09T03:10:33.385Z,14.90
2018-12-09T03:11:33.402Z,13.90
2018-12-09T03:12:33.371Z,11.60
2018-12-09T03:13:33.387Z,15.80
2018-12-09T03:14:33.358Z,12.60
2018-12-09T03:15:33.353Z,15.50
2018-12-09T03:16:33.357Z,15.10
2018-12-09T03:17:33.835Z,15.20
2018-12-09T03:18:33.321Z,15.10
2018-12-09T03:19:33.293Z,14.10
2018-12-09T03:20:33.285Z,16.10
2018-12-09T03:21:33.279Z,14.10
2018-12-09T03:23:23.315Z,19.70
2018-12-09T03:24:24.331Z,17.60
2018-12-09T03:25:24.284Z,16.80
2018-12-09T03:26:24.284Z,20.80
2018-12-09T03:27:24.264Z,13.30
2018-12-09T03:28:24.261Z,16.80
2018-12-09T03:29:24.264Z,16.00
2018-12-09T03:30:24.247Z,18.00
2018-12-09T03:31:24.249Z,14.40
2018-12-09T03:32:24.215Z,16.20
2018-12-09T03:33:24.211Z,16.30
2018-12-09T03:34:24.226Z,16.60
2018-12-09T03:35:24.206Z,10.60
2018-12-09T03:36:24.176Z,16.50
2018-12-09T03:37:24.163Z,16.80
2018-12-09T03:38:24.151Z,15.20
2018-12-09T03:39:24.151Z,17.80
2018-12-09T03:40:24.122Z,16.10
2018-12-09T03:41:24.117Z,14.50
2018-12-09T03:42:24.110Z,15.40
2018-12-09T03:43:24.115Z,16.30
2018-12-09T03:44:24.117Z,17.30
2018-12-09T03:45:24.082Z,13.90
2018-12-09T03:46:24.057Z,17.20
2018-12-09T03:47:24.050Z,16.80
2018-12-09T03:48:24.032Z,15.80
2018-12-09T03:49:24.036Z,14.80
2018-12-09T03:50:24.021Z,14.80
2018-12-09T03:51:24.022Z,13.60
2018-12-09T03:52:23.990Z,14.60
2018-12-09T03:53:23.992Z,14.90
2018-12-09T03:54:23.969Z,13.00
2018-12-09T03:55:23.979Z,13.50
2018-12-09T03:56:23.966Z,12.10
2018-12-09T03:57:23.943Z,12.20
2018-12-09T03:58:23.922Z,14.10
2018-12-09T03:59:23.914Z,11.80
2018-12-09T04:00:23.951Z,10.60
2018-12-09T04:01:23.903Z,12.60
2018-12-09T04:02:23.896Z,10.70
2018-12-09T04:03:23.878Z,9.60
2018-12-09T04:04:23.859Z,13.10
2018-12-09T04:05:23.878Z,12.10
2018-12-09T04:06:23.852Z,12.50
2018-12-09T04:07:23.834Z,12.00
2018-12-09T04:08:23.834Z,13.20
2018-12-09T04:09:23.803Z,13.40
2018-12-09T04:10:23.810Z,11.80
2018-12-09T04:11:23.797Z,15.10
2018-12-09T04:12:23.770Z,10.50
2018-12-09T04:13:23.758Z,14.00
2018-12-09T04:14:23.751Z,13.30
2018-12-09T04:15:23.785Z,13.00
2018-12-09T04:16:23.734Z,15.80
2018-12-09T04:17:23.721Z,14.90
2018-12-09T04:18:23.709Z,13.30
2018-12-09T04:19:23.706Z,11.90
2018-12-09T04:20:23.713Z,12.30
2018-12-09T04:21:23.682Z,12.80
2018-12-09T04:22:23.665Z,13.50
2018-12-09T04:23:23.660Z,13.00
2018-12-09T04:24:23.639Z,14.50
2018-12-09T04:25:23.652Z,11.90
2018-12-09T04:26:23.632Z,15.30
2018-12-09T04:27:23.619Z,13.40
2018-12-09T04:28:23.595Z,14.90
2018-12-09T04:29:23.580Z,15.10
2018-12-09T04:30:23.603Z,10.20
2018-12-09T04:31:23.572Z,13.00
2018-12-09T04:32:23.550Z,12.40
2018-12-09T04:33:23.546Z,11.30
2018-12-09T04:34:23.530Z,12.60
2018-12-09T04:35:23.550Z,10.80
2018-12-09T04:36:23.514Z,8.90
2018-12-09T04:37:23.505Z,9.50
2018-12-09T04:38:23.499Z,9.30
2018-12-09T04:39:23.474Z,9.20
2018-12-09T04:40:23.498Z,9.80
2018-12-09T04:41:23.475Z,12.20
2018-12-09T04:42:23.458Z,9.60
2018-12-09T04:43:23.437Z,8.30
2018-12-09T04:44:23.427Z,8.70
2018-12-09T04:45:23.489Z,11.70
2018-12-09T04:46:23.404Z,9.60
2018-12-09T04:47:23.392Z,7.80
2018-12-09T04:48:23.380Z,8.40
2018-12-09T04:49:23.370Z,9.80
2018-12-09T04:50:23.371Z,10.00
2018-12-09T04:51:23.351Z,11.80
2018-12-09T04:52:23.329Z,10.00
2018-12-09T04:53:23.333Z,9.90
2018-12-09T04:54:23.309Z,9.70
2018-12-09T04:55:23.324Z,13.30
2018-12-09T04:56:23.292Z,11.40
2018-12-09T04:57:23.282Z,11.60
2018-12-09T04:58:23.259Z,10.60
2018-12-09T04:59:23.277Z,9.00
2018-12-09T05:00:23.268Z,13.10
2018-12-09T05:01:23.260Z,10.00
2018-12-09T05:02:23.222Z,9.10
2018-12-09T05:03:23.221Z,14.70
2018-12-09T05:04:23.206Z,12.90
2018-12-09T05:05:23.209Z,10.80
2018-12-09T05:06:23.191Z,10.70
2018-12-09T05:07:23.176Z,11.10
2018-12-09T05:08:23.179Z,10.90
2018-12-09T05:09:23.147Z,11.40
2018-12-09T05:10:23.161Z,8.10
2018-12-09T05:11:23.131Z,10.40
2018-12-09T05:12:23.120Z,6.90
2018-12-09T05:13:23.108Z,6.80
2018-12-09T05:14:23.097Z,10.70
2018-12-09T05:15:23.103Z,9.50
2018-12-09T05:16:23.082Z,7.90
2018-12-09T05:17:23.060Z,9.90
2018-12-09T05:18:23.060Z,8.60
2018-12-09T05:19:23.033Z,10.60
2018-12-09T05:20:23.030Z,12.70
2018-12-09T05:21:23.013Z,12.60
2018-12-09T05:22:23.011Z,12.80
2018-12-09T05:24:32.187Z,14.90
2018-12-09T05:25:33.214Z,11.50
2018-12-09T05:26:33.167Z,13.10
2018-12-09T05:27:33.155Z,15.40
2018-12-09T05:28:33.148Z,12.10
2018-12-09T05:29:33.143Z,12.40
2018-12-09T05:30:33.138Z,14.60
2018-12-09T05:31:33.122Z,15.40
2018-12-09T05:32:33.109Z,20.60
2018-12-09T05:33:33.087Z,13.90
2018-12-09T05:34:33.083Z,19.60
2018-12-09T05:35:33.088Z,14.30
2018-12-09T05:36:33.070Z,14.40
2018-12-09T05:37:33.056Z,15.80
2018-12-09T05:38:33.026Z,17.90
2018-12-09T05:39:33.014Z,11.50
2018-12-09T05:40:33.033Z,18.60
2018-12-09T05:41:33.036Z,15.90
2018-12-09T05:42:33.003Z,20.20
2018-12-09T05:43:32.989Z,15.50
2018-12-09T05:44:32.984Z,20.00
2018-12-09T05:45:32.965Z,19.30
2018-12-09T05:46:32.988Z,20.60
2018-12-09T05:47:32.936Z,20.00
2018-12-09T05:48:32.923Z,19.00
2018-12-09T05:49:32.909Z,20.20
2018-12-09T05:50:32.976Z,18.50
2018-12-09T05:51:32.914Z,18.20
2018-12-09T05:52:32.901Z,18.90
2018-12-09T05:53:32.889Z,20.10
2018-12-09T05:54:32.864Z,18.00
2018-12-09T05:55:32.864Z,15.30
2018-12-09T05:56:32.864Z,15.50
2018-12-09T05:57:32.836Z,13.50
2018-12-09T05:58:32.823Z,14.50
2018-12-09T05:59:32.835Z,16.20
2018-12-09T06:00:32.793Z,13.00
2018-12-09T06:01:32.811Z,13.90
2018-12-09T06:02:32.779Z,15.20
2018-12-09T06:03:32.771Z,16.90
2018-12-09T06:04:32.753Z,15.00
2018-12-09T06:05:32.763Z,17.10
2018-12-09T06:06:32.741Z,13.80
2018-12-09T06:07:32.725Z,20.50
2018-12-09T06:08:32.715Z,15.40
2018-12-09T06:09:32.700Z,17.50
2018-12-09T06:10:32.693Z,15.90
2018-12-09T06:11:32.701Z,19.30
2018-12-09T06:12:32.678Z,17.50
2018-12-09T06:13:32.650Z,17.40
2018-12-09T06:14:32.643Z,15.20
2018-12-09T06:15:32.631Z,15.80
2018-12-09T06:16:32.648Z,18.80
2018-12-09T06:17:32.703Z,17.10
2018-12-09T06:18:32.600Z,14.90
2018-12-09T06:19:32.586Z,20.60
2018-12-09T06:20:32.656Z,14.20
2018-12-09T06:21:32.580Z,16.10
2018-12-09T06:22:32.575Z,18.50
2018-12-09T06:23:32.554Z,17.40
2018-12-09T06:24:32.560Z,15.00
2018-12-09T06:25:32.559Z,18.10
2018-12-09T06:26:32.530Z,18.60
2018-12-09T06:27:32.512Z,15.10
2018-12-09T06:28:32.490Z,17.30
2018-12-09T06:29:32.484Z,17.30
2018-12-09T06:30:32.468Z,16.00
2018-12-09T06:31:32.479Z,16.20
2018-12-09T06:32:32.583Z,16.00
2018-12-09T06:33:32.455Z,14.50
2018-12-09T06:34:32.420Z,13.70
2018-12-09T06:35:32.427Z,12.50
2018-12-09T06:36:32.424Z,13.50
2018-12-09T06:37:32.387Z,16.60
2018-12-09T06:38:32.385Z,12.30
2018-12-09T06:39:32.374Z,12.80
2018-12-09T06:40:32.358Z,12.50
2018-12-09T06:41:32.373Z,14.70
2018-12-09T06:42:32.345Z,12.10
2018-12-09T06:43:32.325Z,14.00
2018-12-09T06:44:32.317Z,14.70
2018-12-09T06:45:32.340Z,13.40
2018-12-09T06:46:32.341Z,13.70
2018-12-09T06:47:32.292Z,12.10
2018-12-09T06:48:32.269Z,12.00
2018-12-09T06:49:32.262Z,11.30
2018-12-09T06:50:32.255Z,11.70
2018-12-09T06:51:32.273Z,12.20
2018-12-09T06:52:32.228Z,11.90
2018-12-09T06:53:32.256Z,11.00
2018-12-09T06:54:32.240Z,14.00
2018-12-09T06:55:32.241Z,15.80
2018-12-09T06:56:32.207Z,13.90
2018-12-09T06:57:32.186Z,14.50
2018-12-09T06:58:32.199Z,9.00
2018-12-09T06:59:32.153Z,12.60
2018-12-09T07:00:32.154Z,10.00
2018-12-09T07:01:32.149Z,12.80
2018-12-09T07:02:32.147Z,13.50
2018-12-09T07:03:32.103Z,14.30
2018-12-09T07:04:32.146Z,13.50
2018-12-09T07:05:32.118Z,15.30
2018-12-09T07:06:32.098Z,13.30
2018-12-09T07:07:32.076Z,12.40
2018-12-09T07:08:32.052Z,13.40
2018-12-09T07:09:32.042Z,14.00
2018-12-09T07:10:32.032Z,13.60
2018-12-09T07:11:32.026Z,12.10
2018-12-09T07:12:32.017Z,14.10
2018-12-09T07:13:31.993Z,11.90
2018-12-09T07:14:31.986Z,11.20
2018-12-09T07:15:32.001Z,11.30
2018-12-09T07:16:32.003Z,11.90
2018-12-09T07:17:31.964Z,9.30
2018-12-09T07:18:31.941Z,12.20
2018-12-09T07:19:31.942Z,13.40
2018-12-09T07:20:31.941Z,14.10
2018-12-09T07:21:31.938Z,11.20
2018-12-09T07:22:31.939Z,13.40
2018-12-09T07:23:31.896Z,13.20
2018-12-09T07:25:52.021Z,10.00
2018-12-09T07:26:52.998Z,11.80
2018-12-09T07:27:53.013Z,10.20
2018-12-09T07:28:52.974Z,11.90
2018-12-09T07:29:52.979Z,12.90
2018-12-09T07:30:52.966Z,9.80
2018-12-09T07:31:52.954Z,11.60
2018-12-09T07:32:52.959Z,13.60
2018-12-09T07:33:52.925Z,13.40
2018-12-09T07:34:52.935Z,13.40
2018-12-09T07:35:52.933Z,13.10
2018-12-09T07:36:52.915Z,13.30
2018-12-09T07:37:52.909Z,13.50
2018-12-09T07:38:52.875Z,11.80
2018-12-09T07:39:52.877Z,9.80
2018-12-09T07:40:54.186Z,12.80
2018-12-09T07:41:52.842Z,12.90
2018-12-09T07:42:52.848Z,13.00
2018-12-09T07:43:52.825Z,10.40
2018-12-09T07:44:52.804Z,10.50
2018-12-09T07:45:52.792Z,10.70
2018-12-09T07:46:52.782Z,8.70
2018-12-09T07:47:52.787Z,12.00
2018-12-09T07:48:52.772Z,10.70
2018-12-09T07:49:52.757Z,10.90
2018-12-09T07:50:52.750Z,7.50
2018-12-09T07:51:52.741Z,11.00
2018-12-09T07:52:52.737Z,10.60
2018-12-09T07:53:52.710Z,8.80
2018-12-09T07:54:52.707Z,12.20
2018-12-09T07:55:52.683Z,6.20
2018-12-09T07:56:52.674Z,6.50
2018-12-09T07:57:52.687Z,8.70
2018-12-09T07:58:52.658Z,8.70
2018-12-09T07:59:52.641Z,8.60
2018-12-09T08:00:52.633Z,8.10
2018-12-09T08:01:52.621Z,10.40
2018-12-09T08:02:52.642Z,7.10
2018-12-09T08:03:52.618Z,10.20
2018-12-09T08:04:52.591Z,9.10
2018-12-09T08:05:52.588Z,11.90
2018-12-09T08:06:52.570Z,7.00
2018-12-09T08:07:52.588Z,9.80
2018-12-09T08:08:52.548Z,6.50
2018-12-09T08:09:52.541Z,5.50
2018-12-09T08:10:52.518Z,6.70
2018-12-09T08:11:53.343Z,7.00
2018-12-09T08:12:52.524Z,7.40
2018-12-09T08:13:52.507Z,7.20
2018-12-09T08:14:52.484Z,7.70
2018-12-09T08:15:52.465Z,6.30
2018-12-09T08:16:52.456Z,6.80
2018-12-09T08:17:52.468Z,6.00
2018-12-09T08:18:52.442Z,5.70
2018-12-09T08:19:52.448Z,6.50
2018-12-09T08:20:52.417Z,8.20
2018-12-09T08:21:52.407Z,6.70
2018-12-09T08:22:52.418Z,6.00
2018-12-09T08:23:52.395Z,7.00
2018-12-09T08:24:52.379Z,4.40
2018-12-09T08:25:52.361Z,4.60
2018-12-09T08:26:52.354Z,5.20
2018-12-09T08:27:52.364Z,5.40
2018-12-09T08:28:52.328Z,5.00
2018-12-09T08:29:52.976Z,4.90
2018-12-09T08:30:52.308Z,4.20
2018-12-09T08:31:52.294Z,5.60
2018-12-09T08:32:52.319Z,8.40
2018-12-09T08:33:52.285Z,5.80
2018-12-09T08:34:52.260Z,7.10
2018-12-09T08:35:52.246Z,6.70
2018-12-09T08:36:52.242Z,6.20
2018-12-09T08:37:52.255Z,7.10
2018-12-09T08:38:52.237Z,6.90
2018-12-09T08:39:52.207Z,5.00
2018-12-09T08:40:52.203Z,6.10
2018-12-09T08:41:52.186Z,5.20
2018-12-09T08:42:52.206Z,5.00
2018-12-09T08:43:52.174Z,3.80
2018-12-09T08:44:52.185Z,6.40
2018-12-09T08:45:52.138Z,4.30
2018-12-09T08:46:52.130Z,6.80
2018-12-09T08:47:52.150Z,6.10
2018-12-09T08:48:52.105Z,4.90
2018-12-09T08:49:52.106Z,5.10
2018-12-09T08:50:52.090Z,4.40
2018-12-09T08:51:52.081Z,3.70
2018-12-09T08:52:52.070Z,4.30
2018-12-09T08:53:52.088Z,3.40
2018-12-09T08:54:52.053Z,1.60
2018-12-09T08:55:52.039Z,2.70
2018-12-09T08:56:52.016Z,3.30
2018-12-09T08:57:52.015Z,2.50
2018-12-09T08:58:52.003Z,2.80
2018-12-09T08:59:52.003Z,3.70
2018-12-09T09:00:51.974Z,3.50
2018-12-09T09:01:51.976Z,2.00
2018-12-09T09:02:51.983Z,1.90
2018-12-09T09:03:51.948Z,3.80
2018-12-09T09:04:51.977Z,3.20
2018-12-09T09:05:51.929Z,2.60
2018-12-09T09:06:51.923Z,3.30
2018-12-09T09:07:51.905Z,3.40
2018-12-09T09:08:51.914Z,3.00
2018-12-09T09:09:51.906Z,3.10
2018-12-09T09:10:51.878Z,4.70
2018-12-09T09:11:51.867Z,4.90
2018-12-09T09:12:51.866Z,2.90
2018-12-09T09:13:51.844Z,4.10
2018-12-09T09:14:51.841Z,4.00
2018-12-09T09:15:51.825Z,2.60
2018-12-09T09:16:51.801Z,4.10
2018-12-09T09:17:51.801Z,3.20
2018-12-09T09:18:51.791Z,2.80
2018-12-09T09:19:51.799Z,4.40
2018-12-09T09:20:51.760Z,4.70
2018-12-09T09:21:51.747Z,1.60
2018-12-09T09:22:51.746Z,3.30
2018-12-09T09:23:51.733Z,3.20
2018-12-09T09:24:51.745Z,3.50
2018-12-09T09:27:00.967Z,1.30
2018-12-09T09:28:01.914Z,3.20
2018-12-09T09:29:01.908Z,2.60
2018-12-09T09:30:01.932Z,2.90
2018-12-09T09:31:01.889Z,3.00
2018-12-09T09:32:01.866Z,3.50
2018-12-09T09:33:01.870Z,4.10
2018-12-09T09:34:01.858Z,3.40
2018-12-09T09:35:01.863Z,3.50
2018-12-09T09:36:01.838Z,5.90
2018-12-09T09:37:01.821Z,3.50
2018-12-09T09:38:01.810Z,3.50
2018-12-09T09:39:01.800Z,2.90
2018-12-09T09:40:01.802Z,3.30
2018-12-09T09:41:01.769Z,2.80
2018-12-09T09:42:01.768Z,2.70
2018-12-09T09:43:01.755Z,4.00
2018-12-09T09:44:01.745Z,3.80
2018-12-09T09:45:01.766Z,2.30
2018-12-09T09:46:01.790Z,3.60
2018-12-09T09:47:01.712Z,4.00
2018-12-09T09:48:01.703Z,4.20
2018-12-09T09:49:01.700Z,2.50
2018-12-09T09:50:01.706Z,2.70
2018-12-09T09:51:01.686Z,3.40
2018-12-09T09:52:01.648Z,5.40
2018-12-09T09:53:01.646Z,2.30
2018-12-09T09:54:01.629Z,2.70
2018-12-09T09:55:01.652Z,3.80
2018-12-09T09:56:01.618Z,2.10
2018-12-09T09:57:01.594Z,2.40
2018-12-09T09:58:01.604Z,3.60
2018-12-09T09:59:01.744Z,4.10
2018-12-09T10:00:01.626Z,4.10
2018-12-09T10:01:01.554Z,2.90
2018-12-09T10:02:01.541Z,3.20
2018-12-09T10:03:01.537Z,3.20
2018-12-09T10:04:01.528Z,5.10
2018-12-09T10:05:01.535Z,3.60
2018-12-09T10:06:01.502Z,2.20
2018-12-09T10:07:01.514Z,3.60
2018-12-09T10:08:01.483Z,3.30
2018-12-09T10:09:01.472Z,2.90
2018-12-09T10:10:01.501Z,2.20
2018-12-09T10:11:01.448Z,2.60
2018-12-09T10:12:01.437Z,3.20
2018-12-09T10:13:01.420Z,3.90
2018-12-09T10:14:01.403Z,2.50
2018-12-09T10:15:01.433Z,1.40
2018-12-09T10:16:01.398Z,2.60
2018-12-09T10:17:01.371Z,2.70
2018-12-09T10:18:02.716Z,3.10
2018-12-09T10:19:01.366Z,2.40
2018-12-09T10:20:01.378Z,1.40
2018-12-09T10:21:01.343Z,2.00
2018-12-09T10:22:02.162Z,2.80
2018-12-09T10:23:01.311Z,1.50
2018-12-09T10:24:01.300Z,1.80
2018-12-09T10:25:01.308Z,1.50
2018-12-09T10:26:01.286Z,2.00
2018-12-09T10:27:01.276Z,1.50
2018-12-09T10:28:01.262Z,3.40
2018-12-09T10:29:01.266Z,2.40
2018-12-09T10:30:01.267Z,1.20
2018-12-09T10:31:01.229Z,1.80
2018-12-09T10:32:01.217Z,2.70
2018-12-09T10:33:01.202Z,1.70
2018-12-09T10:34:01.198Z,2.50
2018-12-09T10:35:01.200Z,2.60
2018-12-09T10:36:01.191Z,2.30
2018-12-09T10:37:01.183Z,1.90
2018-12-09T10:38:01.158Z,2.60
2018-12-09T10:39:01.138Z,3.30
2018-12-09T10:40:01.153Z,2.60
2018-12-09T10:41:01.128Z,2.50
2018-12-09T10:42:01.125Z,2.80
2018-12-09T10:43:01.101Z,1.90
2018-12-09T10:44:01.088Z,3.00
2018-12-09T10:45:01.097Z,2.10
2018-12-09T10:46:01.065Z,1.30
2018-12-09T10:47:01.064Z,2.50
2018-12-09T10:48:01.042Z,2.30
2018-12-09T10:49:01.028Z,2.00
2018-12-09T10:50:01.021Z,3.10
2018-12-09T10:51:01.022Z,2.10
2018-12-09T10:52:01.037Z,2.00
2018-12-09T10:53:01.011Z,1.70
2018-12-09T10:54:00.993Z,2.40
2018-12-09T10:55:00.965Z,1.20
2018-12-09T10:56:00.993Z,1.90
2018-12-09T10:57:00.955Z,2.10
2018-12-09T10:58:00.942Z,2.70
2018-12-09T10:59:00.933Z,1.70
2018-12-09T11:00:00.914Z,4.20
2018-12-09T11:01:00.937Z,2.40
2018-12-09T11:02:00.893Z,1.70
2018-12-09T11:03:00.891Z,2.30
2018-12-09T11:04:00.908Z,2.90
2018-12-09T11:05:00.876Z,2.30
2018-12-09T11:06:00.875Z,2.60
2018-12-09T11:07:00.870Z,2.50
2018-12-09T11:08:00.825Z,2.50
2018-12-09T11:09:00.830Z,1.60
2018-12-09T11:10:00.820Z,1.20
2018-12-09T11:11:00.822Z,2.70
2018-12-09T11:12:00.788Z,3.00
2018-12-09T11:13:00.822Z,2.60
2018-12-09T11:14:00.765Z,2.10
2018-12-09T11:15:00.760Z,2.30
2018-12-09T11:16:00.777Z,2.30
2018-12-09T11:17:00.733Z,2.00
2018-12-09T11:18:00.730Z,2.70
2018-12-09T11:19:00.715Z,1.50
2018-12-09T11:20:00.698Z,2.90
2018-12-09T11:21:00.701Z,2.70
2018-12-09T11:22:00.679Z,3.70
2018-12-09T11:23:00.669Z,1.80
2018-12-09T11:24:00.667Z,2.20
2018-12-09T11:25:00.648Z,3.00
2018-12-09T11:26:00.657Z,2.20
2018-12-09T11:28:09.810Z,1.80
2018-12-09T11:29:10.814Z,2.60
2018-12-09T11:30:10.790Z,1.50
2018-12-09T11:31:10.810Z,2.10
2018-12-09T11:32:10.777Z,2.40
2018-12-09T11:33:10.774Z,1.90
2018-12-09T11:34:10.758Z,3.00
2018-12-09T11:35:10.737Z,2.50
2018-12-09T11:36:10.749Z,1.50
2018-12-09T11:37:10.734Z,2.80
2018-12-09T11:38:10.717Z,3.00
2018-12-09T11:39:10.694Z,2.60
2018-12-09T11:40:10.699Z,3.70
2018-12-09T11:41:10.709Z,2.70
2018-12-09T11:42:10.665Z,1.70
2018-12-09T11:43:10.647Z,2.40
2018-12-09T11:44:10.653Z,3.80
2018-12-09T11:45:10.626Z,2.40
2018-12-09T11:46:10.641Z,3.00
2018-12-09T11:47:10.609Z,2.80
2018-12-09T11:48:10.603Z,2.50
2018-12-09T11:49:10.589Z,2.10
2018-12-09T11:50:10.581Z,2.30
2018-12-09T11:51:10.584Z,1.90
2018-12-09T11:52:10.564Z,2.10
2018-12-09T11:53:10.537Z,0.80
2018-12-09T11:54:10.535Z,1.70
2018-12-09T11:55:10.555Z,2.60
2018-12-09T11:56:10.551Z,2.20
2018-12-09T11:57:10.514Z,2.70
2018-12-09T11:58:10.510Z,3.10
2018-12-09T11:59:11.918Z,1.60
2018-12-09T12:00:10.473Z,2.60
2018-12-09T12:01:10.485Z,3.00
2018-12-09T12:02:10.467Z,2.40
2018-12-09T12:03:10.440Z,2.40
2018-12-09T12:04:10.439Z,2.00
2018-12-09T12:05:10.428Z,2.60
2018-12-09T12:06:10.427Z,3.80
2018-12-09T12:07:10.421Z,4.20
2018-12-09T12:08:10.378Z,3.20
2018-12-09T12:09:11.065Z,3.70
2018-12-09T12:10:10.363Z,2.10
2018-12-09T12:11:10.363Z,3.50
2018-12-09T12:12:10.365Z,3.70
2018-12-09T12:13:10.333Z,2.70
2018-12-09T12:14:10.333Z,2.50
2018-12-09T12:15:10.315Z,2.70
2018-12-09T12:16:10.301Z,2.20
2018-12-09T12:17:10.316Z,2.60
2018-12-09T12:18:10.285Z,3.20
2018-12-09T12:19:10.269Z,3.00
2018-12-09T12:20:10.260Z,3.20
2018-12-09T12:21:10.245Z,2.70
2018-12-09T12:22:10.250Z,3.00
2018-12-09T12:23:10.234Z,2.00
2018-12-09T12:24:10.207Z,2.80
2018-12-09T12:25:10.208Z,2.70
2018-12-09T12:26:10.189Z,3.90
2018-12-09T12:27:10.204Z,4.00
2018-12-09T12:28:10.198Z,3.70
2018-12-09T12:29:10.158Z,3.40
2018-12-09T12:30:10.141Z,2.00
2018-12-09T12:31:10.146Z,4.20
2018-12-09T12:32:10.160Z,2.10
2018-12-09T12:33:10.131Z,1.90
2018-12-09T12:34:10.116Z,3.30
2018-12-09T12:35:10.108Z,3.20
2018-12-09T12:36:10.080Z,3.50
2018-12-09T12:37:10.087Z,3.50
2018-12-09T12:38:10.068Z,3.60
2018-12-09T12:39:10.057Z,3.30
2018-12-09T12:40:10.048Z,2.50
2018-12-09T12:41:10.038Z,3.80
2018-12-09T12:42:10.072Z,5.00
2018-12-09T12:43:10.018Z,2.30
2018-12-09T12:44:10.001Z,3.40
2018-12-09T12:45:09.994Z,4.80
2018-12-09T12:46:09.982Z,3.30
2018-12-09T12:47:09.959Z,4.80
2018-12-09T12:48:09.981Z,4.00
2018-12-09T12:49:09.971Z,3.00
2018-12-09T12:50:09.941Z,3.80
2018-12-09T12:51:09.922Z,3.50
2018-12-09T12:52:09.934Z,4.00
2018-12-09T12:53:09.938Z,5.10
2018-12-09T12:54:09.898Z,4.30
2018-12-09T12:55:09.901Z,4.20
2018-12-09T12:56:09.876Z,4.50
2018-12-09T12:57:09.892Z,5.40
2018-12-09T12:58:09.869Z,5.50
2018-12-09T12:59:09.835Z,4.40
2018-12-09T13:00:09.832Z,4.80
2018-12-09T13:01:09.826Z,5.10
2018-12-09T13:02:09.809Z,4.40
2018-12-09T13:03:09.823Z,6.50
2018-12-09T13:04:09.803Z,5.30
2018-12-09T13:05:09.796Z,3.20
2018-12-09T13:06:09.763Z,5.20
2018-12-09T13:07:09.773Z,3.90
2018-12-09T13:08:09.757Z,7.20
2018-12-09T13:09:09.728Z,4.60
2018-12-09T13:10:09.727Z,6.40
2018-12-09T13:11:09.713Z,6.30
2018-12-09T13:12:09.691Z,5.00
2018-12-09T13:13:09.713Z,4.00
2018-12-09T13:14:09.666Z,4.30
2018-12-09T13:15:09.660Z,6.20